Weather at Melbourne International Airport

Public forecast

Using degrees Celsius for public forecast. Weather courtesy of forecast.io.

Current aviation weather report (METAR) for Melbourne International Airport

Retrieved 2020/11/28 16:30 UTC (0 seconds ago):

YMML 281630Z 04007KT 330V040 9999 VCSH NSC 17/15 Q0994

Aviation forecast (TAF) for Melbourne International Airport

Retrieved 2020/11/28 12:00 UTC (4 hours ago):

TAF YMML 281108Z 2812/2918 21008KT 9999 -SHRA FEW010 FM281400 22010KT 9999 -SHRA BKN010 FM281800 21015G25KT 9999 SHRA BKN010 FM282200 19014KT 9999 -SHRA SCT012 BKN020 FM290100 19014KT 9999 NSW BKN035 FM290600 18015KT 9999 FEW040 FM291000 18007KT 9999 BKN030 FM291600 12005KT 9999 FEW015 BKN020 INTER 2815/2818 5000 SHRA BKN010 TEMPO 2818/2823 3000 RA BKN005 INTER 2823/2902 5000 SHRA BKN010